createdAt,value
2022-11-05T00:00:47.685Z,0.00
2022-11-05T00:01:49.176Z,0.00
2022-11-05T00:02:47.656Z,0.00
2022-11-05T00:03:47.750Z,0.00
2022-11-05T00:04:47.625Z,0.00
2022-11-05T00:05:47.606Z,0.00
2022-11-05T00:06:47.604Z,0.00
2022-11-05T00:07:48.527Z,0.00
2022-11-05T00:08:47.578Z,0.00
2022-11-05T00:09:47.562Z,0.00
2022-11-05T00:10:47.546Z,0.00
2022-11-05T00:11:47.528Z,0.00
2022-11-05T00:12:47.524Z,0.00
2022-11-05T00:13:47.508Z,0.00
2022-11-05T00:14:47.497Z,0.00
2022-11-05T00:15:47.479Z,0.00
2022-11-05T00:16:47.458Z,0.00
2022-11-05T00:17:47.449Z,0.00
2022-11-05T00:18:47.438Z,0.00
2022-11-05T00:19:47.423Z,0.00
2022-11-05T00:20:47.420Z,0.00
2022-11-05T00:21:47.399Z,0.00
2022-11-05T00:22:47.389Z,0.00
2022-11-05T00:23:47.381Z,0.00
2022-11-05T00:24:47.359Z,0.00
2022-11-05T00:25:47.385Z,0.00
2022-11-05T00:26:47.331Z,0.00
2022-11-05T00:27:47.312Z,0.00
2022-11-05T00:28:47.310Z,0.00
2022-11-05T00:29:47.293Z,0.00
2022-11-05T00:30:47.282Z,0.00
2022-11-05T00:31:47.274Z,0.00
2022-11-05T00:32:47.251Z,0.00
2022-11-05T00:33:47.251Z,0.00
2022-11-05T05:20:59.974Z,0.00
2022-11-05T05:21:08.720Z,0.00
2022-11-05T05:22:04.730Z,0.00
2022-11-05T05:23:04.723Z,0.00
2022-11-05T05:24:04.702Z,0.00
2022-11-05T05:25:04.688Z,0.00
2022-11-05T05:26:04.663Z,0.00
2022-11-05T05:27:04.673Z,0.00
2022-11-05T05:28:04.654Z,0.00
2022-11-05T05:29:04.633Z,0.00
2022-11-05T05:30:04.616Z,0.00
2022-11-05T05:31:04.596Z,0.00
2022-11-05T05:32:04.584Z,0.00
2022-11-05T05:33:04.589Z,0.00
2022-11-05T05:34:04.565Z,0.00
2022-11-05T05:35:04.553Z,0.00
2022-11-05T05:36:09.966Z,0.00
2022-11-05T05:37:05.568Z,2.00
2022-11-05T05:38:04.547Z,2.00
2022-11-05T05:39:04.497Z,2.00
2022-11-05T05:40:04.519Z,0.00
2022-11-05T05:41:04.466Z,0.00
2022-11-05T05:42:04.447Z,4.00
2022-11-05T05:43:04.444Z,0.00
2022-11-05T05:44:04.437Z,2.00
2022-11-05T05:45:04.419Z,1.00
2022-11-05T05:46:04.402Z,9.00
2022-11-05T05:47:04.411Z,7.00
2022-11-05T05:48:04.385Z,13.00
2022-11-05T05:49:07.975Z,11.00
2022-11-05T05:50:05.338Z,18.00
2022-11-05T05:51:04.343Z,6.00
2022-11-05T05:52:04.324Z,27.00
2022-11-05T05:53:04.353Z,28.00
2022-11-05T05:54:04.291Z,28.00
2022-11-05T05:55:04.275Z,31.00
2022-11-05T05:56:04.260Z,38.00
2022-11-05T05:57:04.260Z,55.00
2022-11-05T05:58:04.246Z,60.00
2022-11-05T05:59:04.225Z,70.00
2022-11-05T06:00:04.211Z,79.00
2022-11-05T06:01:04.190Z,95.00
2022-11-05T06:02:04.272Z,102.00
2022-11-05T06:03:04.493Z,118.00
2022-11-05T06:04:04.162Z,117.00
2022-11-05T06:05:04.142Z,148.00
2022-11-05T06:06:04.145Z,154.00
2022-11-05T06:07:04.123Z,193.00
2022-11-05T06:08:04.115Z,201.00
2022-11-05T06:09:04.092Z,227.00
2022-11-05T06:10:04.072Z,250.00
2022-11-05T06:11:04.132Z,263.00
2022-11-05T06:12:04.081Z,288.00
2022-11-05T06:13:04.062Z,315.00
2022-11-05T06:14:04.025Z,344.00
2022-11-05T06:15:04.003Z,366.00
2022-11-05T06:16:03.995Z,402.00
2022-11-05T06:17:03.985Z,417.00
2022-11-05T06:18:03.975Z,450.00
2022-11-05T06:19:03.955Z,483.00
2022-11-05T06:20:03.945Z,513.00
2022-11-05T06:21:03.945Z,525.00
2022-11-05T06:22:03.936Z,567.00
2022-11-05T06:23:03.926Z,595.00
2022-11-05T06:24:03.929Z,642.00
2022-11-05T06:25:03.878Z,665.00
2022-11-05T06:26:04.089Z,700.00
2022-11-05T06:27:03.857Z,732.00
2022-11-05T06:28:03.826Z,765.00
2022-11-05T06:29:03.827Z,800.00
2022-11-05T06:30:03.798Z,824.00
2022-11-05T06:31:03.796Z,852.00
2022-11-05T06:32:03.774Z,868.00
2022-11-05T06:33:03.769Z,882.00
2022-11-05T06:34:03.743Z,910.00
2022-11-05T06:35:03.728Z,929.00
2022-11-05T06:36:03.721Z,981.00
2022-11-05T06:37:03.717Z,1013.00
2022-11-05T06:38:03.697Z,1053.00
2022-11-05T06:39:04.635Z,1103.00
2022-11-05T06:40:03.659Z,1147.00
2022-11-05T06:41:09.888Z,1208.00
2022-11-05T06:42:17.955Z,1243.00
2022-11-05T06:43:04.648Z,1272.00
2022-11-05T06:44:03.646Z,1296.00
2022-11-05T06:45:03.596Z,1306.00
2022-11-05T06:46:03.595Z,1322.00
2022-11-05T06:47:03.662Z,1325.00
2022-11-05T06:48:03.560Z,1338.00
2022-11-05T06:49:03.541Z,1368.00
2022-11-05T06:50:03.540Z,1399.00
2022-11-05T06:51:03.522Z,1425.00
2022-11-05T06:52:03.510Z,1418.00
2022-11-05T06:53:03.513Z,1395.00
2022-11-05T06:54:03.477Z,1347.00
2022-11-05T06:55:03.472Z,1284.00
2022-11-05T06:56:03.441Z,1213.00
2022-11-05T06:57:03.468Z,1168.00
2022-11-05T06:58:03.424Z,1142.00
2022-11-05T06:59:03.422Z,1165.00
2022-11-05T07:00:07.663Z,1201.00
2022-11-05T07:01:03.471Z,1281.00
2022-11-05T07:02:03.424Z,1328.00
2022-11-05T07:03:03.362Z,1319.00
2022-11-05T07:04:03.334Z,1309.00
2022-11-05T07:05:03.324Z,1300.00
2022-11-05T07:06:03.314Z,1284.00
2022-11-05T07:07:03.323Z,1285.00
2022-11-05T07:08:04.261Z,1279.00
2022-11-05T07:09:04.278Z,1266.00
2022-11-05T07:10:03.295Z,1288.00
2022-11-05T07:11:03.251Z,1315.00
2022-11-05T07:12:03.235Z,1351.00
2022-11-05T07:13:07.799Z,1385.00
2022-11-05T07:14:04.216Z,1431.00
2022-11-05T07:15:03.202Z,1492.00
2022-11-05T07:16:03.191Z,1540.00
2022-11-05T07:17:03.175Z,1607.00
2022-11-05T07:18:03.156Z,1703.00
2022-11-05T07:19:03.136Z,1784.00
2022-11-05T07:20:03.118Z,1848.00
2022-11-05T07:21:03.117Z,1943.00
2022-11-05T07:22:03.098Z,2042.00
2022-11-05T07:23:03.093Z,2134.00
2022-11-05T07:24:03.068Z,2204.00
2022-11-05T07:25:03.058Z,2270.00
2022-11-05T07:26:03.039Z,2280.00
2022-11-05T07:27:03.049Z,2301.00
2022-11-05T07:28:03.972Z,2345.00
2022-11-05T07:29:03.008Z,2440.00
2022-11-05T07:30:02.990Z,2560.00
2022-11-05T07:31:02.990Z,2688.00
2022-11-05T07:32:02.972Z,2775.00
2022-11-05T07:33:02.961Z,2799.00
2022-11-05T07:34:02.940Z,2819.00
2022-11-05T07:35:02.945Z,2858.00
2022-11-05T07:36:02.915Z,2918.00
2022-11-05T07:37:02.921Z,2985.00
2022-11-05T07:38:02.881Z,3017.00
2022-11-05T07:39:02.880Z,3049.00
2022-11-05T07:40:02.856Z,3073.00
2022-11-05T07:41:02.852Z,3068.00
2022-11-05T07:42:02.832Z,3133.00
2022-11-05T07:43:02.813Z,3220.00
2022-11-05T07:44:02.793Z,3268.00
2022-11-05T07:45:02.796Z,3302.00
2022-11-05T07:46:02.773Z,3345.00
2022-11-05T07:47:02.784Z,3371.00
2022-11-05T07:48:02.753Z,3366.00
2022-11-05T07:49:02.736Z,3349.00
2022-11-05T07:50:02.715Z,3294.00
2022-11-05T07:51:02.717Z,3218.00
2022-11-05T07:52:02.695Z,3140.00
2022-11-05T07:53:02.698Z,3105.00
2022-11-05T07:54:02.667Z,3099.00
2022-11-05T07:55:02.656Z,3139.00
2022-11-05T07:56:02.636Z,3154.00
2022-11-05T07:57:02.647Z,3169.00
2022-11-05T07:58:02.615Z,3161.00
2022-11-05T07:59:02.627Z,3236.00
2022-11-05T08:00:02.628Z,3331.00
2022-11-05T08:01:02.745Z,3401.00
2022-11-05T08:02:02.718Z,3363.00
2022-11-05T08:03:07.720Z,3342.00
2022-11-05T08:04:03.538Z,3353.00
2022-11-05T08:05:02.514Z,3428.00
2022-11-05T08:06:02.515Z,3575.00
2022-11-05T08:07:02.513Z,3538.00
2022-11-05T08:08:02.473Z,3852.00
2022-11-05T08:09:02.481Z,3924.00
2022-11-05T08:10:02.459Z,3992.00
2022-11-05T08:11:02.440Z,3931.00
2022-11-05T08:12:03.395Z,4038.00
2022-11-05T08:13:02.421Z,4047.00
2022-11-05T08:14:02.407Z,4089.00
2022-11-05T08:15:02.380Z,4082.00
2022-11-05T08:16:05.043Z,3916.00
2022-11-05T08:17:02.381Z,3905.00
2022-11-05T08:18:02.348Z,3878.00
2022-11-05T08:19:02.333Z,3917.00
2022-11-05T08:20:02.322Z,3962.00
2022-11-05T08:21:03.341Z,3694.00
2022-11-05T08:22:03.233Z,3445.00
2022-11-05T08:23:02.274Z,3261.00
2022-11-05T08:24:02.262Z,3128.00
2022-11-05T08:25:06.822Z,3144.00
2022-11-05T08:26:03.215Z,3170.00
2022-11-05T08:27:02.566Z,3567.00
2022-11-05T08:28:02.208Z,3695.00
2022-11-05T08:29:02.198Z,3811.00
2022-11-05T08:30:02.355Z,3814.00
2022-11-05T08:31:03.138Z,3993.00
2022-11-05T08:32:03.113Z,4072.00
2022-11-05T08:33:02.165Z,4105.00
2022-11-05T08:34:02.743Z,4117.00
2022-11-05T08:35:02.112Z,4170.00
2022-11-05T08:36:02.111Z,4176.00
2022-11-05T08:37:02.105Z,4097.00
2022-11-05T08:38:03.005Z,4059.00
2022-11-05T08:39:02.069Z,3979.00
2022-11-05T08:40:02.047Z,3905.00
2022-11-05T08:41:02.043Z,3905.00
2022-11-05T08:42:02.024Z,3880.00
2022-11-05T08:43:02.020Z,3900.00
2022-11-05T08:44:02.016Z,3960.00
2022-11-05T08:45:02.043Z,3968.00
2022-11-05T08:46:02.009Z,3894.00
2022-11-05T08:47:02.925Z,3993.00
2022-11-05T08:48:01.950Z,4047.00
2022-11-05T08:49:01.933Z,4084.00
2022-11-05T08:50:02.863Z,4030.00
2022-11-05T08:51:01.930Z,4169.00
2022-11-05T08:52:01.900Z,4101.00
2022-11-05T08:53:01.880Z,4080.00
2022-11-05T08:54:01.883Z,3967.00
2022-11-05T08:55:01.871Z,4085.00
2022-11-05T08:56:02.805Z,4245.00
2022-11-05T08:57:01.841Z,4413.00
2022-11-05T08:58:01.810Z,4434.00
2022-11-05T08:59:01.801Z,4369.00
2022-11-05T09:00:02.741Z,4502.00
2022-11-05T09:01:05.004Z,4475.00
2022-11-05T09:02:01.861Z,4417.00
2022-11-05T09:03:01.761Z,4277.00
2022-11-05T09:04:01.738Z,4243.00
2022-11-05T09:05:01.712Z,3919.00
2022-11-05T09:06:01.727Z,3809.00
2022-11-05T09:07:01.682Z,4028.00
2022-11-05T09:08:02.629Z,3874.00
2022-11-05T09:09:01.664Z,3990.00
2022-11-05T09:10:01.645Z,4088.00
2022-11-05T09:11:01.648Z,4214.00
2022-11-05T09:12:17.922Z,4261.00
2022-11-05T09:13:02.608Z,4318.00
2022-11-05T09:14:01.595Z,4388.00
2022-11-05T09:15:01.577Z,4426.00
2022-11-05T09:16:01.597Z,4477.00
2022-11-05T09:17:02.534Z,4403.00
2022-11-05T09:18:01.557Z,4149.00
2022-11-05T09:19:01.539Z,4108.00
2022-11-05T09:20:01.690Z,4130.00
2022-11-05T09:21:02.447Z,3427.00
2022-11-05T09:22:01.495Z,3395.00
2022-11-05T09:23:01.466Z,3670.00
2022-11-05T09:24:01.465Z,3578.00
2022-11-05T09:25:01.442Z,3497.00
2022-11-05T09:26:01.451Z,3668.00
2022-11-05T09:27:01.418Z,3654.00
2022-11-05T09:28:01.406Z,3762.00
2022-11-05T09:29:01.388Z,3510.00
2022-11-05T09:30:01.379Z,3609.00
2022-11-05T09:31:01.369Z,3830.00
2022-11-05T09:32:01.350Z,3751.00
2022-11-05T09:33:01.349Z,3792.00
2022-11-05T09:34:01.352Z,3438.00
2022-11-05T09:35:01.329Z,3432.00
2022-11-05T09:36:01.307Z,3455.00
2022-11-05T09:37:01.295Z,3465.00
2022-11-05T09:38:01.560Z,3483.00
2022-11-05T09:39:01.260Z,3484.00
2022-11-05T09:40:01.261Z,3727.00
2022-11-05T09:41:01.245Z,3622.00
2022-11-05T09:42:01.231Z,3477.00
2022-11-05T09:43:01.202Z,3494.00
2022-11-05T09:44:01.228Z,3474.00
2022-11-05T09:45:01.179Z,3460.00
2022-11-05T09:46:01.195Z,3458.00
2022-11-05T09:47:01.152Z,3536.00
2022-11-05T09:48:01.149Z,3457.00
2022-11-05T09:49:01.130Z,3604.00
2022-11-05T09:50:01.109Z,3434.00
2022-11-05T09:51:01.103Z,3877.00
2022-11-05T09:52:01.094Z,4062.00
2022-11-05T09:53:01.067Z,3884.00
2022-11-05T09:54:01.060Z,3143.00
2022-11-05T09:55:01.044Z,3209.00
2022-11-05T09:56:01.045Z,3385.00
2022-11-05T09:57:01.025Z,3296.00
2022-11-05T09:58:01.016Z,3204.00
2022-11-05T09:59:01.222Z,3196.00
2022-11-05T10:00:00.995Z,4039.00
2022-11-05T10:01:01.001Z,3525.00
2022-11-05T10:02:01.058Z,4077.00
2022-11-05T10:03:00.945Z,3372.00
2022-11-05T10:04:00.926Z,3542.00
2022-11-05T10:05:06.442Z,3275.00
2022-11-05T10:06:01.909Z,3134.00
2022-11-05T10:07:00.896Z,4326.00
2022-11-05T10:08:00.880Z,3757.00
2022-11-05T10:09:00.869Z,3194.00
2022-11-05T10:10:00.849Z,3864.00
2022-11-05T10:11:00.849Z,3250.00
2022-11-05T10:12:00.818Z,3214.00
2022-11-05T10:13:00.809Z,3184.00
2022-11-05T10:14:00.800Z,3211.00
2022-11-05T10:15:00.786Z,3179.00
2022-11-05T10:16:00.791Z,3420.00
2022-11-05T10:17:00.750Z,3207.00
2022-11-05T10:18:00.731Z,3273.00
2022-11-05T10:19:00.721Z,3311.00
2022-11-05T10:20:00.719Z,3313.00
2022-11-05T10:21:00.732Z,3307.00
2022-11-05T10:22:06.608Z,3314.00
2022-11-05T10:23:01.682Z,3309.00
2022-11-05T10:24:00.663Z,3301.00
2022-11-05T10:25:00.650Z,3296.00
2022-11-05T10:26:00.669Z,3306.00
2022-11-05T10:27:00.624Z,3308.00
2022-11-05T10:28:00.600Z,3302.00
2022-11-05T10:29:00.588Z,3273.00
2022-11-05T10:30:00.624Z,3260.00
2022-11-05T10:31:00.564Z,3252.00
2022-11-05T10:32:00.544Z,3263.00
2022-11-05T10:33:01.484Z,3250.00
2022-11-05T10:34:00.523Z,3254.00
2022-11-05T10:35:00.507Z,3319.00
2022-11-05T10:36:00.507Z,3281.00
2022-11-05T10:37:00.486Z,3271.00
2022-11-05T10:38:00.466Z,3244.00
2022-11-05T10:39:00.456Z,3786.00
2022-11-05T10:40:00.458Z,3247.00
2022-11-05T10:41:00.435Z,4574.00
2022-11-05T10:42:00.417Z,3248.00
2022-11-05T10:43:00.408Z,3344.00
2022-11-05T10:44:01.347Z,3522.00
2022-11-05T10:45:00.378Z,3724.00
2022-11-05T10:46:00.368Z,3706.00
2022-11-05T10:47:00.350Z,3499.00
2022-11-05T10:48:00.339Z,3422.00
2022-11-05T10:49:00.320Z,3700.00
2022-11-05T10:50:00.328Z,3787.00
2022-11-05T10:51:00.302Z,3571.00
2022-11-05T10:52:00.280Z,3486.00
2022-11-05T10:53:01.232Z,3431.00
2022-11-05T10:54:02.192Z,3315.00
2022-11-05T10:55:00.267Z,3305.00
2022-11-05T10:56:00.229Z,3246.00
2022-11-05T10:57:00.221Z,3266.00
2022-11-05T10:58:00.204Z,3290.00
2022-11-05T10:59:00.192Z,3298.00
2022-11-05T11:00:00.481Z,3314.00
2022-11-05T11:01:00.212Z,3324.00
2022-11-05T11:02:00.239Z,4728.00
2022-11-05T11:03:00.140Z,4144.00
2022-11-05T11:04:00.124Z,3413.00
2022-11-05T11:05:00.113Z,3530.00
2022-11-05T11:06:00.095Z,4981.00
2022-11-05T11:07:00.080Z,5029.00
2022-11-05T11:08:00.087Z,3734.00
2022-11-05T11:09:00.076Z,3831.00
2022-11-05T11:10:00.045Z,3872.00
2022-11-05T11:11:00.025Z,3948.00
2022-11-05T11:12:00.053Z,3740.00
2022-11-05T11:13:00.065Z,3878.00
2022-11-05T11:13:59.986Z,4026.00
2022-11-05T11:15:00.008Z,3861.00
2022-11-05T11:15:59.991Z,3813.00
2022-11-05T11:16:59.947Z,4138.00
2022-11-05T11:17:59.996Z,4318.00
2022-11-05T11:18:59.918Z,4663.00
2022-11-05T11:19:59.925Z,5016.00
2022-11-05T11:20:59.888Z,5243.00
2022-11-05T11:21:59.896Z,5425.00
2022-11-05T11:22:59.869Z,5607.00
2022-11-05T11:23:59.869Z,5716.00
2022-11-05T11:24:59.858Z,5757.00
2022-11-05T11:25:59.833Z,6627.00
2022-11-05T11:26:59.819Z,5726.00
2022-11-05T11:27:59.810Z,6060.00
2022-11-05T11:28:59.791Z,6125.00
2022-11-05T11:29:59.796Z,6229.00
2022-11-05T11:31:00.712Z,6332.00
2022-11-05T11:31:59.781Z,6503.00
2022-11-05T11:32:59.746Z,6769.00
2022-11-05T11:33:59.732Z,6759.00
2022-11-05T11:34:59.724Z,6488.00
2022-11-05T11:35:59.703Z,6159.00
2022-11-05T11:36:59.694Z,6617.00
2022-11-05T11:37:59.676Z,6215.00
2022-11-05T11:38:59.654Z,6170.00
2022-11-05T11:39:59.925Z,6052.00
2022-11-05T11:40:59.624Z,5894.00
2022-11-05T11:41:59.622Z,5954.00
2022-11-05T11:42:59.597Z,5790.00
2022-11-05T11:43:59.603Z,5473.00
2022-11-05T11:44:59.589Z,5206.00
2022-11-05T11:46:05.408Z,4872.00
2022-11-05T11:47:01.506Z,4546.00
2022-11-05T11:47:59.548Z,4342.00
2022-11-05T11:48:59.517Z,4194.00
2022-11-05T11:49:59.530Z,4271.00
2022-11-05T11:50:59.507Z,4322.00
2022-11-05T11:51:59.500Z,4379.00
2022-11-05T11:52:59.469Z,4496.00
2022-11-05T11:53:59.466Z,4761.00
2022-11-05T11:54:59.460Z,5023.00
2022-11-05T11:55:59.437Z,5167.00
2022-11-05T11:56:59.420Z,5141.00
2022-11-05T11:57:59.431Z,4908.00
2022-11-05T11:58:59.427Z,4752.00
2022-11-05T12:00:14.668Z,4628.00
2022-11-05T12:01:01.329Z,4667.00
2022-11-05T12:01:59.437Z,4490.00
2022-11-05T12:03:02.071Z,5136.00
2022-11-05T12:03:59.340Z,4620.00
2022-11-05T12:04:59.320Z,5255.00
2022-11-05T12:05:59.323Z,5521.00
2022-11-05T12:06:59.291Z,5567.00
2022-11-05T12:07:59.275Z,5626.00
2022-11-05T12:09:05.350Z,5551.00
2022-11-05T12:10:00.262Z,4827.00
2022-11-05T12:10:59.234Z,4730.00
2022-11-05T12:11:59.249Z,4807.00
2022-11-05T12:12:59.215Z,4951.00
2022-11-05T12:13:59.211Z,5047.00
2022-11-05T12:14:59.184Z,5211.00
2022-11-05T12:15:59.173Z,5343.00
2022-11-05T12:16:59.154Z,5429.00
2022-11-05T12:17:59.146Z,5514.00
2022-11-05T12:18:59.133Z,6275.00
2022-11-05T12:19:59.117Z,6872.00
2022-11-05T12:20:59.146Z,7066.00
2022-11-05T12:21:59.095Z,7023.00
2022-11-05T12:22:59.078Z,6935.00
2022-11-05T12:23:59.071Z,6802.00
2022-11-05T12:24:59.047Z,6582.00
2022-11-05T12:25:59.036Z,6214.00
2022-11-05T12:26:59.989Z,5734.00
2022-11-05T12:27:59.009Z,5161.00
2022-11-05T12:29:17.946Z,4796.00
2022-11-05T12:29:59.981Z,4510.00
2022-11-05T12:30:58.970Z,4354.00
2022-11-05T12:31:58.966Z,4356.00
2022-11-05T12:32:59.064Z,4088.00
2022-11-05T12:33:59.071Z,3941.00
2022-11-05T12:35:00.402Z,3964.00
2022-11-05T12:35:58.913Z,4087.00
2022-11-05T12:36:58.893Z,4190.00
2022-11-05T12:37:58.880Z,4195.00
2022-11-05T12:38:58.923Z,4162.00
2022-11-05T12:39:58.862Z,4143.00
2022-11-05T12:40:58.844Z,4194.00
2022-11-05T12:41:58.829Z,4247.00
2022-11-05T12:42:58.813Z,4357.00
2022-11-05T12:43:58.815Z,4460.00
2022-11-05T12:44:59.034Z,4682.00
2022-11-05T12:45:58.794Z,4463.00
2022-11-05T12:46:58.768Z,4764.00
2022-11-05T12:47:58.748Z,4762.00
2022-11-05T12:48:58.746Z,4761.00
2022-11-05T12:49:58.716Z,4709.00
2022-11-05T12:50:58.723Z,4674.00
2022-11-05T12:51:58.685Z,4687.00
2022-11-05T12:52:58.682Z,4683.00
2022-11-05T12:53:58.668Z,4630.00
2022-11-05T12:54:58.647Z,4590.00
2022-11-05T12:55:58.646Z,4616.00
2022-11-05T12:56:58.627Z,4608.00
2022-11-05T12:57:58.618Z,4555.00
2022-11-05T12:58:58.611Z,4587.00
2022-11-05T12:59:58.578Z,4664.00
2022-11-05T13:00:58.671Z,4753.00
2022-11-05T13:01:58.650Z,4855.00
2022-11-05T13:02:58.561Z,4950.00
2022-11-05T13:03:58.548Z,5022.00
2022-11-05T13:04:58.536Z,5100.00
2022-11-05T13:06:04.532Z,5127.00
2022-11-05T13:06:59.502Z,5100.00
2022-11-05T13:07:58.481Z,4995.00
2022-11-05T13:08:58.471Z,4864.00
2022-11-05T13:09:58.449Z,4713.00
2022-11-05T13:10:58.443Z,4624.00
2022-11-05T13:11:58.432Z,4474.00
2022-11-05T13:12:58.418Z,4309.00
2022-11-05T13:13:58.410Z,4234.00
2022-11-05T13:14:58.412Z,4160.00
2022-11-05T13:15:58.363Z,4159.00
2022-11-05T13:16:58.381Z,4186.00
2022-11-05T13:17:58.342Z,4082.00
2022-11-05T13:18:58.344Z,3850.00
2022-11-05T13:19:59.273Z,4160.00
2022-11-05T13:20:58.305Z,3687.00
2022-11-05T13:21:58.293Z,3641.00
2022-11-05T13:22:58.277Z,3663.00
2022-11-05T13:23:58.265Z,3690.00
2022-11-05T13:24:58.250Z,3599.00
2022-11-05T13:25:58.240Z,3641.00
2022-11-05T13:26:58.230Z,3704.00
2022-11-05T13:27:58.216Z,3576.00
2022-11-05T13:28:58.205Z,3552.00
2022-11-05T13:29:58.189Z,3554.00
2022-11-05T13:30:58.166Z,3549.00
2022-11-05T13:31:58.159Z,3536.00
2022-11-05T13:32:58.154Z,3517.00
2022-11-05T13:33:58.161Z,3498.00
2022-11-05T13:34:58.118Z,3477.00
2022-11-05T13:35:58.110Z,3470.00
2022-11-05T13:36:59.044Z,3451.00
2022-11-05T13:37:58.089Z,3444.00
2022-11-05T13:38:58.089Z,3432.00
2022-11-05T13:39:58.059Z,3410.00
2022-11-05T13:40:58.039Z,3424.00
2022-11-05T13:41:58.033Z,3412.00
2022-11-05T13:42:58.021Z,3400.00
2022-11-05T13:43:58.010Z,3396.00
2022-11-05T13:44:57.980Z,3370.00
2022-11-05T13:46:02.811Z,3371.00
2022-11-05T13:46:58.960Z,3363.00
2022-11-05T13:47:57.950Z,3370.00
2022-11-05T13:48:57.941Z,3345.00
2022-11-05T13:49:57.933Z,3349.00
2022-11-05T13:50:57.912Z,3330.00
2022-11-05T13:51:57.895Z,3325.00
2022-11-05T13:52:57.882Z,3319.00
2022-11-05T13:53:57.877Z,3320.00
2022-11-05T13:54:57.855Z,3307.00
2022-11-05T13:55:57.833Z,3324.00
2022-11-05T13:56:57.824Z,3333.00
2022-11-05T13:57:57.807Z,3322.00
2022-11-05T13:58:57.804Z,3333.00
2022-11-05T13:59:57.794Z,3317.00
2022-11-05T14:00:57.816Z,3308.00
2022-11-05T14:01:57.805Z,3299.00
2022-11-05T14:02:57.745Z,3268.00
2022-11-05T14:03:57.738Z,3266.00
2022-11-05T14:05:00.935Z,3250.00
2022-11-05T14:05:57.717Z,3244.00
2022-11-05T14:06:57.687Z,3228.00
2022-11-05T14:07:57.677Z,3211.00
2022-11-05T14:08:58.635Z,3183.00
2022-11-05T14:09:57.647Z,3173.00
2022-11-05T14:10:57.643Z,3150.00
2022-11-05T14:11:57.635Z,3138.00
2022-11-05T14:12:57.621Z,3118.00
2022-11-05T14:13:57.598Z,3109.00
2022-11-05T14:14:59.002Z,3102.00
2022-11-05T14:15:57.570Z,3088.00
2022-11-05T14:16:57.560Z,3077.00
2022-11-05T14:17:57.544Z,3064.00
2022-11-05T14:18:57.540Z,3047.00
2022-11-05T14:19:57.511Z,3029.00
2022-11-05T14:20:57.512Z,3018.00
2022-11-05T14:21:57.514Z,3006.00
2022-11-05T14:22:57.473Z,2979.00
2022-11-05T14:23:57.469Z,2956.00
2022-11-05T14:24:57.451Z,2935.00
2022-11-05T14:25:57.469Z,2909.00
2022-11-05T14:26:57.455Z,2897.00
2022-11-05T14:27:57.404Z,2865.00
2022-11-05T14:28:57.413Z,2844.00
2022-11-05T14:29:57.388Z,2823.00
2022-11-05T14:30:57.378Z,2793.00
2022-11-05T14:32:12.555Z,2753.00
2022-11-05T14:32:58.353Z,2736.00
2022-11-05T14:33:57.335Z,2713.00
2022-11-05T14:34:57.323Z,2701.00
2022-11-05T14:35:57.305Z,2672.00
2022-11-05T14:36:57.294Z,2623.00
2022-11-05T14:37:57.272Z,2606.00
2022-11-05T14:39:01.495Z,2572.00
2022-11-05T14:39:58.245Z,2534.00
2022-11-05T14:40:57.235Z,2520.00
2022-11-05T14:41:57.226Z,2482.00
2022-11-05T14:42:57.208Z,2448.00
2022-11-05T14:43:57.196Z,2425.00
2022-11-05T14:44:57.198Z,2383.00
2022-11-05T14:45:57.167Z,2354.00
2022-11-05T14:46:57.157Z,2313.00
2022-11-05T14:47:57.145Z,2279.00
2022-11-05T14:48:57.128Z,2237.00
2022-11-05T14:49:57.109Z,2213.00
2022-11-05T14:50:57.112Z,2163.00
2022-11-05T14:51:57.104Z,2131.00
2022-11-05T14:52:57.080Z,2090.00
2022-11-05T14:53:57.079Z,2054.00
2022-11-05T14:54:57.049Z,2014.00
2022-11-05T14:55:57.031Z,1967.00
2022-11-05T14:56:57.022Z,1936.00
2022-11-05T14:57:57.014Z,1891.00
2022-11-05T14:58:56.998Z,1834.00
2022-11-05T14:59:56.988Z,1798.00
2022-11-05T15:00:57.036Z,1758.00
2022-11-05T15:01:57.948Z,1709.00
2022-11-05T15:02:56.961Z,1670.00
2022-11-05T15:03:56.970Z,1625.00
2022-11-05T15:04:56.922Z,1583.00
2022-11-05T15:05:56.902Z,1534.00
2022-11-05T15:06:56.898Z,1477.00
2022-11-05T15:07:56.912Z,1438.00
2022-11-05T15:08:56.900Z,1395.00
2022-11-05T15:09:56.852Z,1355.00
2022-11-05T15:10:56.835Z,1297.00
2022-11-05T15:11:56.814Z,1267.00
2022-11-05T15:12:56.814Z,1230.00
2022-11-05T15:13:56.835Z,1174.00
2022-11-05T15:14:56.790Z,1135.00
2022-11-05T15:15:56.760Z,1092.00
2022-11-05T15:16:56.787Z,1041.00
2022-11-05T15:17:56.774Z,989.00
2022-11-05T15:18:56.743Z,934.00
2022-11-05T15:19:56.707Z,920.00
2022-11-05T15:20:56.709Z,858.00
2022-11-05T15:21:56.698Z,817.00
2022-11-05T15:22:56.686Z,767.00
2022-11-05T15:23:56.668Z,736.00
2022-11-05T15:24:56.648Z,695.00
2022-11-05T15:25:56.638Z,659.00
2022-11-05T15:26:56.617Z,621.00
2022-11-05T15:27:56.618Z,597.00
2022-11-05T15:28:56.601Z,565.00
2022-11-05T15:29:56.579Z,531.00
2022-11-05T15:30:56.570Z,490.00
2022-11-05T15:31:56.560Z,455.00
2022-11-05T15:32:56.550Z,419.00
2022-11-05T15:33:56.519Z,391.00
2022-11-05T15:34:56.513Z,351.00
2022-11-05T15:35:56.516Z,323.00
2022-11-05T15:36:56.490Z,296.00
2022-11-05T15:38:01.695Z,260.00
2022-11-05T15:39:23.340Z,229.00
2022-11-05T15:39:57.452Z,214.00
2022-11-05T15:40:56.436Z,189.00
2022-11-05T15:41:56.422Z,179.00
2022-11-05T15:42:56.412Z,160.00
2022-11-05T15:43:56.392Z,138.00
2022-11-05T15:44:56.397Z,119.00
2022-11-05T15:45:56.373Z,105.00
2022-11-05T15:46:56.625Z,96.00
2022-11-05T15:47:56.344Z,84.00
2022-11-05T15:48:56.324Z,73.00
2022-11-05T15:49:56.313Z,61.00
2022-11-05T15:50:56.317Z,56.00
2022-11-05T15:51:56.315Z,42.00
2022-11-05T15:53:04.856Z,37.00
2022-11-05T15:54:57.262Z,12.00
2022-11-05T15:55:57.101Z,24.00
2022-11-05T15:56:56.234Z,17.00
2022-11-05T15:57:56.205Z,15.00
2022-11-05T15:58:56.196Z,16.00
2022-11-05T15:59:56.204Z,16.00
2022-11-05T16:00:56.166Z,13.00
2022-11-05T16:01:56.343Z,7.00
2022-11-05T16:02:56.136Z,9.00
2022-11-05T16:03:56.122Z,1.00
2022-11-05T16:04:56.116Z,2.00
2022-11-05T16:05:56.097Z,4.00
2022-11-05T16:06:56.093Z,4.00
2022-11-05T16:07:56.067Z,0.00
2022-11-05T16:08:56.057Z,4.00
2022-11-05T16:09:56.056Z,2.00
2022-11-05T16:10:56.277Z,2.00
2022-11-05T16:11:56.018Z,0.00
2022-11-05T16:12:56.017Z,0.00
2022-11-05T16:13:55.988Z,0.00
2022-11-05T16:14:55.978Z,0.00
2022-11-05T16:15:55.983Z,0.00
2022-11-05T16:16:55.952Z,0.00
2022-11-05T16:17:55.931Z,0.00
2022-11-05T16:18:55.920Z,0.00
2022-11-05T16:19:55.910Z,0.00
2022-11-05T16:20:56.860Z,0.00
2022-11-05T16:21:55.888Z,0.00
2022-11-05T16:22:55.862Z,0.00
2022-11-05T16:23:55.863Z,0.00
2022-11-05T16:24:55.841Z,0.00
2022-11-05T16:25:55.841Z,0.00
2022-11-05T16:27:03.600Z,0.00
2022-11-05T16:27:56.804Z,0.00
2022-11-05T16:28:55.793Z,0.00
2022-11-05T16:29:55.775Z,0.00
2022-11-05T16:30:55.772Z,0.00
2022-11-05T16:31:55.916Z,0.00
2022-11-05T16:33:01.827Z,0.00
2022-11-05T16:34:00.025Z,0.00
2022-11-05T17:46:09.599Z,0.00
2022-11-05T17:46:14.354Z,0.00
2022-11-05T17:47:14.359Z,0.00
2022-11-05T17:48:14.338Z,0.00
2022-11-05T17:49:14.331Z,0.00
2022-11-05T17:50:14.334Z,0.00
2022-11-05T17:51:14.301Z,0.00
2022-11-05T17:52:14.270Z,0.00
2022-11-05T17:53:14.612Z,0.00
2022-11-05T17:54:14.241Z,0.00
2022-11-05T17:55:15.468Z,0.00
2022-11-05T17:56:15.136Z,0.00
2022-11-05T17:57:14.235Z,0.00
2022-11-05T17:58:14.209Z,0.00
2022-11-05T17:59:14.192Z,0.00
2022-11-05T18:00:14.173Z,0.00
2022-11-05T18:01:14.209Z,0.00
2022-11-05T18:02:14.243Z,0.00
2022-11-05T18:03:14.465Z,0.00
2022-11-05T18:04:14.118Z,0.00
2022-11-05T18:05:14.105Z,0.00
2022-11-05T18:06:14.083Z,0.00
2022-11-05T18:07:14.097Z,0.00
2022-11-05T18:08:14.053Z,0.00
2022-11-05T18:09:14.046Z,0.00
2022-11-05T18:10:14.034Z,0.00
2022-11-05T18:11:14.025Z,0.00
2022-11-05T18:12:14.012Z,0.00
2022-11-05T18:13:14.363Z,0.00
2022-11-05T18:14:13.985Z,0.00
2022-11-05T18:15:13.975Z,0.00
2022-11-05T18:16:13.964Z,0.00
2022-11-05T18:17:13.939Z,0.00
2022-11-05T18:18:13.926Z,0.00